sensor_id;sensor_type;location;lat;lon;timestamp;P1;durP1;ratioP1;P2;durP2;ratioP2
71867;SDS011;59738;48.324;14.230;2023-03-02T00:02:41;9.25;;;5.05;;
71867;SDS011;59738;48.324;14.230;2023-03-02T00:05:10;11.05;;;5.00;;
71867;SDS011;59738;48.324;14.230;2023-03-02T00:07:40;10.80;;;5.30;;
71867;SDS011;59738;48.324;14.230;2023-03-02T00:10:08;12.02;;;5.70;;
71867;SDS011;59738;48.324;14.230;2023-03-02T00:12:36;8.25;;;4.43;;
71867;SDS011;59738;48.324;14.230;2023-03-02T00:15:06;9.80;;;4.97;;
71867;SDS011;59738;48.324;14.230;2023-03-02T00:17:34;11.27;;;6.05;;
71867;SDS011;59738;48.324;14.230;2023-03-02T00:20:02;11.60;;;5.30;;
71867;SDS011;59738;48.324;14.230;2023-03-02T00:22:34;9.25;;;5.03;;
71867;SDS011;59738;48.324;14.230;2023-03-02T00:25:04;14.55;;;6.45;;
71867;SDS011;59738;48.324;14.230;2023-03-02T00:27:32;10.57;;;5.28;;
71867;SDS011;59738;48.324;14.230;2023-03-02T00:30:00;11.20;;;5.85;;
71867;SDS011;59738;48.324;14.230;2023-03-02T00:32:27;9.68;;;4.93;;
71867;SDS011;59738;48.324;14.230;2023-03-02T00:34:56;10.10;;;5.38;;
71867;SDS011;59738;48.324;14.230;2023-03-02T00:37:24;7.90;;;4.07;;
71867;SDS011;59738;48.324;14.230;2023-03-02T00:39:52;14.68;;;6.70;;
71867;SDS011;59738;48.324;14.230;2023-03-02T00:42:21;11.00;;;5.80;;
71867;SDS011;59738;48.324;14.230;2023-03-02T00:44:50;9.82;;;5.57;;
71867;SDS011;59738;48.324;14.230;2023-03-02T00:47:18;11.55;;;5.93;;
71867;SDS011;59738;48.324;14.230;2023-03-02T00:49:46;9.93;;;5.57;;
71867;SDS011;59738;48.324;14.230;2023-03-02T00:52:14;8.63;;;4.93;;
71867;SDS011;59738;48.324;14.230;2023-03-02T00:54:42;10.93;;;5.93;;
71867;SDS011;59738;48.324;14.230;2023-03-02T00:57:10;11.80;;;5.20;;
71867;SDS011;59738;48.324;14.230;2023-03-02T00:59:39;15.50;;;7.00;;
71867;SDS011;59738;48.324;14.230;2023-03-02T01:02:20;11.15;;;6.30;;
71867;SDS011;59738;48.324;14.230;2023-03-02T01:04:49;14.73;;;6.80;;
71867;SDS011;59738;48.324;14.230;2023-03-02T01:07:18;11.95;;;7.25;;
71867;SDS011;59738;48.324;14.230;2023-03-02T01:09:47;11.45;;;5.80;;
71867;SDS011;59738;48.324;14.230;2023-03-02T01:12:15;13.82;;;7.03;;
71867;SDS011;59738;48.324;14.230;2023-03-02T01:14:44;10.25;;;5.28;;
71867;SDS011;59738;48.324;14.230;2023-03-02T01:17:13;13.52;;;5.53;;
71867;SDS011;59738;48.324;14.230;2023-03-02T01:19:41;12.07;;;5.78;;
71867;SDS011;59738;48.324;14.230;2023-03-02T01:22:09;11.73;;;5.93;;
71867;SDS011;59738;48.324;14.230;2023-03-02T01:24:37;9.68;;;5.25;;
71867;SDS011;59738;48.324;14.230;2023-03-02T01:27:04;11.65;;;5.35;;
71867;SDS011;59738;48.324;14.230;2023-03-02T01:29:32;10.13;;;5.03;;
71867;SDS011;59738;48.324;14.230;2023-03-02T01:32:01;12.05;;;5.32;;
71867;SDS011;59738;48.324;14.230;2023-03-02T01:34:30;7.40;;;5.50;;
71867;SDS011;59738;48.324;14.230;2023-03-02T01:36:57;7.40;;;4.63;;
71867;SDS011;59738;48.324;14.230;2023-03-02T01:39:25;14.82;;;6.60;;
71867;SDS011;59738;48.324;14.230;2023-03-02T01:41:53;13.13;;;6.22;;
71867;SDS011;59738;48.324;14.230;2023-03-02T01:44:34;16.83;;;7.47;;
71867;SDS011;59738;48.324;14.230;2023-03-02T01:47:05;12.35;;;5.55;;
71867;SDS011;59738;48.324;14.230;2023-03-02T01:49:43;10.93;;;5.40;;
71867;SDS011;59738;48.324;14.230;2023-03-02T01:52:14;9.20;;;5.57;;
71867;SDS011;59738;48.324;14.230;2023-03-02T01:54:42;15.98;;;7.72;;
71867;SDS011;59738;48.324;14.230;2023-03-02T01:57:10;17.80;;;6.65;;
71867;SDS011;59738;48.324;14.230;2023-03-02T01:59:38;15.85;;;7.32;;
71867;SDS011;59738;48.324;14.230;2023-03-02T02:02:08;15.00;;;6.57;;
71867;SDS011;59738;48.324;14.230;2023-03-02T02:04:37;14.48;;;7.18;;
71867;SDS011;59738;48.324;14.230;2023-03-02T02:07:07;13.15;;;6.88;;
71867;SDS011;59738;48.324;14.230;2023-03-02T02:09:36;15.65;;;7.15;;
71867;SDS011;59738;48.324;14.230;2023-03-02T02:12:10;18.15;;;6.00;;
71867;SDS011;59738;48.324;14.230;2023-03-02T02:14:39;12.32;;;5.30;;
71867;SDS011;59738;48.324;14.230;2023-03-02T02:17:09;11.13;;;5.40;;
71867;SDS011;59738;48.324;14.230;2023-03-02T02:19:41;18.35;;;6.05;;
71867;SDS011;59738;48.324;14.230;2023-03-02T02:22:14;9.77;;;4.32;;
71867;SDS011;59738;48.324;14.230;2023-03-02T02:24:48;13.40;;;6.53;;
71867;SDS011;59738;48.324;14.230;2023-03-02T02:27:19;13.68;;;6.80;;
71867;SDS011;59738;48.324;14.230;2023-03-02T02:29:54;13.90;;;6.15;;
71867;SDS011;59738;48.324;14.230;2023-03-02T02:32:23;11.88;;;5.60;;
71867;SDS011;59738;48.324;14.230;2023-03-02T02:34:52;13.48;;;6.75;;
71867;SDS011;59738;48.324;14.230;2023-03-02T02:37:25;14.00;;;6.97;;
71867;SDS011;59738;48.324;14.230;2023-03-02T02:39:55;12.20;;;6.13;;
71867;SDS011;59738;48.324;14.230;2023-03-02T02:42:26;16.00;;;5.28;;
71867;SDS011;59738;48.324;14.230;2023-03-02T02:44:56;14.60;;;6.55;;
71867;SDS011;59738;48.324;14.230;2023-03-02T02:47:26;11.85;;;4.63;;
71867;SDS011;59738;48.324;14.230;2023-03-02T02:49:54;16.40;;;5.95;;
71867;SDS011;59738;48.324;14.230;2023-03-02T02:52:23;11.63;;;5.03;;
71867;SDS011;59738;48.324;14.230;2023-03-02T02:54:52;11.77;;;5.63;;
71867;SDS011;59738;48.324;14.230;2023-03-02T02:57:22;11.15;;;6.07;;
71867;SDS011;59738;48.324;14.230;2023-03-02T02:59:53;8.23;;;4.60;;
71867;SDS011;59738;48.324;14.230;2023-03-02T03:02:23;13.75;;;6.38;;
71867;SDS011;59738;48.324;14.230;2023-03-02T03:04:52;14.82;;;5.65;;
71867;SDS011;59738;48.324;14.230;2023-03-02T03:07:29;10.90;;;5.43;;
71867;SDS011;59738;48.324;14.230;2023-03-02T03:10:00;12.20;;;5.65;;
71867;SDS011;59738;48.324;14.230;2023-03-02T03:12:31;15.43;;;5.78;;
71867;SDS011;59738;48.324;14.230;2023-03-02T03:15:03;12.35;;;5.18;;
71867;SDS011;59738;48.324;14.230;2023-03-02T03:17:32;7.55;;;4.50;;
71867;SDS011;59738;48.324;14.230;2023-03-02T03:20:01;9.15;;;4.60;;
71867;SDS011;59738;48.324;14.230;2023-03-02T03:22:36;11.63;;;4.78;;
71867;SDS011;59738;48.324;14.230;2023-03-02T03:25:06;10.90;;;4.57;;
71867;SDS011;59738;48.324;14.230;2023-03-02T03:27:34;9.07;;;5.03;;
71867;SDS011;59738;48.324;14.230;2023-03-02T03:30:05;7.57;;;3.92;;
71867;SDS011;59738;48.324;14.230;2023-03-02T03:32:34;8.65;;;5.00;;
71867;SDS011;59738;48.324;14.230;2023-03-02T03:35:04;15.63;;;4.70;;
71867;SDS011;59738;48.324;14.230;2023-03-02T03:37:34;8.48;;;4.43;;
71867;SDS011;59738;48.324;14.230;2023-03-02T03:40:02;6.15;;;3.67;;
71867;SDS011;59738;48.324;14.230;2023-03-02T03:42:32;6.40;;;4.00;;
71867;SDS011;59738;48.324;14.230;2023-03-02T03:45:00;11.63;;;4.97;;
71867;SDS011;59738;48.324;14.230;2023-03-02T03:47:29;4.63;;;3.17;;
71867;SDS011;59738;48.324;14.230;2023-03-02T03:49:57;6.22;;;3.67;;
71867;SDS011;59738;48.324;14.230;2023-03-02T03:52:24;7.25;;;3.92;;
71867;SDS011;59738;48.324;14.230;2023-03-02T03:55:02;9.47;;;4.50;;
71867;SDS011;59738;48.324;14.230;2023-03-02T03:57:31;7.45;;;4.40;;
71867;SDS011;59738;48.324;14.230;2023-03-02T03:59:58;7.78;;;4.03;;
71867;SDS011;59738;48.324;14.230;2023-03-02T04:02:26;9.32;;;4.15;;
71867;SDS011;59738;48.324;14.230;2023-03-02T04:04:55;6.57;;;4.05;;
71867;SDS011;59738;48.324;14.230;2023-03-02T04:07:31;7.40;;;3.10;;
71867;SDS011;59738;48.324;14.230;2023-03-02T04:09:59;7.88;;;4.60;;
71867;SDS011;59738;48.324;14.230;2023-03-02T04:12:32;7.07;;;4.15;;
71867;SDS011;59738;48.324;14.230;2023-03-02T04:15:01;14.15;;;5.15;;
71867;SDS011;59738;48.324;14.230;2023-03-02T04:17:29;10.02;;;4.18;;
71867;SDS011;59738;48.324;14.230;2023-03-02T04:19:58;9.90;;;4.53;;
71867;SDS011;59738;48.324;14.230;2023-03-02T04:22:26;7.38;;;4.38;;
71867;SDS011;59738;48.324;14.230;2023-03-02T04:24:54;8.23;;;4.28;;
71867;SDS011;59738;48.324;14.230;2023-03-02T04:27:22;5.75;;;3.58;;
71867;SDS011;59738;48.324;14.230;2023-03-02T04:29:49;9.07;;;6.05;;
71867;SDS011;59738;48.324;14.230;2023-03-02T04:32:18;6.63;;;3.95;;
71867;SDS011;59738;48.324;14.230;2023-03-02T04:34:51;6.13;;;3.92;;
71867;SDS011;59738;48.324;14.230;2023-03-02T04:37:20;9.38;;;5.10;;
71867;SDS011;59738;48.324;14.230;2023-03-02T04:39:47;10.52;;;4.65;;
71867;SDS011;59738;48.324;14.230;2023-03-02T04:42:17;9.30;;;5.13;;
71867;SDS011;59738;48.324;14.230;2023-03-02T04:44:45;9.20;;;4.88;;
71867;SDS011;59738;48.324;14.230;2023-03-02T04:47:12;11.63;;;6.05;;
71867;SDS011;59738;48.324;14.230;2023-03-02T04:49:40;15.25;;;6.13;;
71867;SDS011;59738;48.324;14.230;2023-03-02T04:52:08;13.82;;;5.28;;
71867;SDS011;59738;48.324;14.230;2023-03-02T04:54:37;17.48;;;6.53;;
71867;SDS011;59738;48.324;14.230;2023-03-02T04:57:05;9.25;;;4.55;;
71867;SDS011;59738;48.324;14.230;2023-03-02T04:59:33;7.55;;;4.20;;
71867;SDS011;59738;48.324;14.230;2023-03-02T05:02:00;12.63;;;5.45;;
71867;SDS011;59738;48.324;14.230;2023-03-02T05:04:28;9.70;;;5.50;;
71867;SDS011;59738;48.324;14.230;2023-03-02T05:06:56;7.78;;;4.25;;
71867;SDS011;59738;48.324;14.230;2023-03-02T05:09:24;9.00;;;4.55;;
71867;SDS011;59738;48.324;14.230;2023-03-02T05:11:58;14.18;;;4.38;;
71867;SDS011;59738;48.324;14.230;2023-03-02T05:14:28;9.60;;;4.78;;
71867;SDS011;59738;48.324;14.230;2023-03-02T05:16:56;7.95;;;4.28;;
71867;SDS011;59738;48.324;14.230;2023-03-02T05:19:24;10.48;;;4.35;;
71867;SDS011;59738;48.324;14.230;2023-03-02T05:21:52;11.23;;;3.88;;
71867;SDS011;59738;48.324;14.230;2023-03-02T05:24:19;8.55;;;3.03;;
71867;SDS011;59738;48.324;14.230;2023-03-02T05:26:47;6.72;;;3.65;;
71867;SDS011;59738;48.324;14.230;2023-03-02T05:29:16;11.55;;;4.05;;
71867;SDS011;59738;48.324;14.230;2023-03-02T05:31:43;8.05;;;3.00;;
71867;SDS011;59738;48.324;14.230;2023-03-02T05:34:12;5.80;;;2.95;;
71867;SDS011;59738;48.324;14.230;2023-03-02T05:36:41;7.20;;;3.88;;
71867;SDS011;59738;48.324;14.230;2023-03-02T05:39:10;7.43;;;2.88;;
71867;SDS011;59738;48.324;14.230;2023-03-02T05:41:37;2.50;;;2.30;;
71867;SDS011;59738;48.324;14.230;2023-03-02T05:44:05;4.78;;;3.53;;
71867;SDS011;59738;48.324;14.230;2023-03-02T05:46:39;7.32;;;3.80;;
71867;SDS011;59738;48.324;14.230;2023-03-02T05:49:06;5.60;;;3.10;;
71867;SDS011;59738;48.324;14.230;2023-03-02T05:51:35;6.22;;;3.97;;
71867;SDS011;59738;48.324;14.230;2023-03-02T05:54:02;7.80;;;3.83;;
71867;SDS011;59738;48.324;14.230;2023-03-02T05:56:30;6.13;;;3.22;;
71867;SDS011;59738;48.324;14.230;2023-03-02T05:58:57;7.15;;;3.60;;
71867;SDS011;59738;48.324;14.230;2023-03-02T06:01:26;8.13;;;4.07;;
71867;SDS011;59738;48.324;14.230;2023-03-02T06:03:55;4.90;;;3.60;;
71867;SDS011;59738;48.324;14.230;2023-03-02T06:06:22;7.75;;;4.28;;
71867;SDS011;59738;48.324;14.230;2023-03-02T06:08:50;7.40;;;3.33;;
71867;SDS011;59738;48.324;14.230;2023-03-02T06:11:17;12.25;;;4.13;;
71867;SDS011;59738;48.324;14.230;2023-03-02T06:13:44;8.88;;;3.67;;
71867;SDS011;59738;48.324;14.230;2023-03-02T06:16:12;5.53;;;3.50;;
71867;SDS011;59738;48.324;14.230;2023-03-02T06:18:39;9.10;;;4.78;;
71867;SDS011;59738;48.324;14.230;2023-03-02T06:21:08;11.57;;;5.03;;
71867;SDS011;59738;48.324;14.230;2023-03-02T06:23:36;10.63;;;4.32;;
71867;SDS011;59738;48.324;14.230;2023-03-02T06:26:06;11.50;;;5.40;;
71867;SDS011;59738;48.324;14.230;2023-03-02T06:28:34;8.23;;;3.50;;
71867;SDS011;59738;48.324;14.230;2023-03-02T06:31:01;10.82;;;4.78;;
71867;SDS011;59738;48.324;14.230;2023-03-02T06:33:29;16.23;;;3.85;;
71867;SDS011;59738;48.324;14.230;2023-03-02T06:35:56;8.27;;;3.55;;
71867;SDS011;59738;48.324;14.230;2023-03-02T06:38:25;5.53;;;3.08;;
71867;SDS011;59738;48.324;14.230;2023-03-02T06:40:53;4.90;;;4.00;;
71867;SDS011;59738;48.324;14.230;2023-03-02T06:43:20;10.20;;;4.82;;
71867;SDS011;59738;48.324;14.230;2023-03-02T06:45:47;9.25;;;4.35;;
71867;SDS011;59738;48.324;14.230;2023-03-02T06:48:17;8.35;;;4.05;;
71867;SDS011;59738;48.324;14.230;2023-03-02T06:50:45;7.22;;;4.50;;
71867;SDS011;59738;48.324;14.230;2023-03-02T06:53:13;9.80;;;4.25;;
71867;SDS011;59738;48.324;14.230;2023-03-02T06:55:45;13.15;;;4.68;;
71867;SDS011;59738;48.324;14.230;2023-03-02T06:58:13;9.23;;;4.20;;
71867;SDS011;59738;48.324;14.230;2023-03-02T07:00:40;6.60;;;3.13;;
71867;SDS011;59738;48.324;14.230;2023-03-02T07:03:07;10.77;;;3.47;;
71867;SDS011;59738;48.324;14.230;2023-03-02T07:05:35;6.95;;;3.35;;
71867;SDS011;59738;48.324;14.230;2023-03-02T07:08:03;6.97;;;3.67;;
71867;SDS011;59738;48.324;14.230;2023-03-02T07:10:30;11.05;;;4.88;;
71867;SDS011;59738;48.324;14.230;2023-03-02T07:12:59;11.93;;;3.90;;
71867;SDS011;59738;48.324;14.230;2023-03-02T07:15:26;12.93;;;4.60;;
71867;SDS011;59738;48.324;14.230;2023-03-02T07:17:54;13.43;;;6.15;;
71867;SDS011;59738;48.324;14.230;2023-03-02T07:20:21;14.65;;;5.72;;
71867;SDS011;59738;48.324;14.230;2023-03-02T07:22:49;8.68;;;4.68;;
71867;SDS011;59738;48.324;14.230;2023-03-02T07:25:16;9.50;;;5.13;;
71867;SDS011;59738;48.324;14.230;2023-03-02T07:27:44;10.00;;;4.28;;
71867;SDS011;59738;48.324;14.230;2023-03-02T07:30:13;9.98;;;4.68;;
71867;SDS011;59738;48.324;14.230;2023-03-02T07:32:43;8.23;;;4.63;;
71867;SDS011;59738;48.324;14.230;2023-03-02T07:35:11;9.85;;;4.60;;
71867;SDS011;59738;48.324;14.230;2023-03-02T07:37:38;13.63;;;5.97;;
71867;SDS011;59738;48.324;14.230;2023-03-02T07:40:06;11.15;;;5.72;;
71867;SDS011;59738;48.324;14.230;2023-03-02T07:42:36;15.98;;;6.40;;
71867;SDS011;59738;48.324;14.230;2023-03-02T07:45:06;11.50;;;5.80;;
71867;SDS011;59738;48.324;14.230;2023-03-02T07:47:35;22.33;;;6.70;;
71867;SDS011;59738;48.324;14.230;2023-03-02T07:50:03;11.30;;;5.77;;
71867;SDS011;59738;48.324;14.230;2023-03-02T07:52:31;12.52;;;5.78;;
71867;SDS011;59738;48.324;14.230;2023-03-02T07:54:58;15.77;;;7.43;;
71867;SDS011;59738;48.324;14.230;2023-03-02T07:57:26;12.75;;;6.15;;
71867;SDS011;59738;48.324;14.230;2023-03-02T07:59:53;24.08;;;11.02;;
71867;SDS011;59738;48.324;14.230;2023-03-02T08:02:21;28.20;;;10.43;;
71867;SDS011;59738;48.324;14.230;2023-03-02T08:04:51;26.38;;;9.32;;
71867;SDS011;59738;48.324;14.230;2023-03-02T08:07:19;24.17;;;9.93;;
71867;SDS011;59738;48.324;14.230;2023-03-02T08:09:46;18.92;;;9.25;;
71867;SDS011;59738;48.324;14.230;2023-03-02T08:12:14;15.48;;;7.03;;
71867;SDS011;59738;48.324;14.230;2023-03-02T08:14:41;13.13;;;6.33;;
71867;SDS011;59738;48.324;14.230;2023-03-02T08:17:09;20.25;;;9.38;;
71867;SDS011;59738;48.324;14.230;2023-03-02T08:19:37;22.65;;;10.30;;
71867;SDS011;59738;48.324;14.230;2023-03-02T08:22:06;15.23;;;7.13;;
71867;SDS011;59738;48.324;14.230;2023-03-02T08:24:33;17.80;;;6.40;;
71867;SDS011;59738;48.324;14.230;2023-03-02T08:27:01;13.93;;;6.67;;
71867;SDS011;59738;48.324;14.230;2023-03-02T08:29:29;12.68;;;5.68;;
71867;SDS011;59738;48.324;14.230;2023-03-02T08:31:57;11.15;;;5.05;;
71867;SDS011;59738;48.324;14.230;2023-03-02T08:34:24;13.13;;;5.93;;
71867;SDS011;59738;48.324;14.230;2023-03-02T08:36:52;15.23;;;7.10;;
71867;SDS011;59738;48.324;14.230;2023-03-02T08:39:21;17.90;;;7.07;;
71867;SDS011;59738;48.324;14.230;2023-03-02T08:41:49;16.42;;;6.68;;
71867;SDS011;59738;48.324;14.230;2023-03-02T08:44:16;10.65;;;5.95;;
71867;SDS011;59738;48.324;14.230;2023-03-02T08:46:45;11.98;;;5.55;;
71867;SDS011;59738;48.324;14.230;2023-03-02T08:49:13;12.18;;;6.25;;
71867;SDS011;59738;48.324;14.230;2023-03-02T08:51:41;11.33;;;5.77;;
71867;SDS011;59738;48.324;14.230;2023-03-02T08:54:09;9.35;;;4.93;;
71867;SDS011;59738;48.324;14.230;2023-03-02T08:56:38;10.40;;;5.32;;
71867;SDS011;59738;48.324;14.230;2023-03-02T08:59:06;13.95;;;6.65;;
71867;SDS011;59738;48.324;14.230;2023-03-02T09:01:36;13.15;;;5.95;;
71867;SDS011;59738;48.324;14.230;2023-03-02T09:04:04;14.70;;;6.23;;
71867;SDS011;59738;48.324;14.230;2023-03-02T09:06:34;11.27;;;5.20;;
71867;SDS011;59738;48.324;14.230;2023-03-02T09:09:03;23.15;;;5.85;;
71867;SDS011;59738;48.324;14.230;2023-03-02T09:11:31;15.60;;;6.47;;
71867;SDS011;59738;48.324;14.230;2023-03-02T09:14:00;14.07;;;5.85;;
71867;SDS011;59738;48.324;14.230;2023-03-02T09:16:28;10.17;;;4.60;;
71867;SDS011;59738;48.324;14.230;2023-03-02T09:18:55;12.43;;;5.50;;
71867;SDS011;59738;48.324;14.230;2023-03-02T09:21:23;11.57;;;5.20;;
71867;SDS011;59738;48.324;14.230;2023-03-02T09:23:51;10.27;;;3.72;;
71867;SDS011;59738;48.324;14.230;2023-03-02T09:26:20;11.02;;;5.32;;
71867;SDS011;59738;48.324;14.230;2023-03-02T09:28:48;12.13;;;4.77;;
71867;SDS011;59738;48.324;14.230;2023-03-02T09:31:17;11.30;;;4.45;;
71867;SDS011;59738;48.324;14.230;2023-03-02T09:33:44;9.63;;;4.03;;
71867;SDS011;59738;48.324;14.230;2023-03-02T09:36:14;9.57;;;4.80;;
71867;SDS011;59738;48.324;14.230;2023-03-02T09:38:45;12.57;;;5.85;;
71867;SDS011;59738;48.324;14.230;2023-03-02T09:44:30;18.13;;;7.32;;
71867;SDS011;59738;48.324;14.230;2023-03-02T09:47:18;10.25;;;5.35;;
71867;SDS011;59738;48.324;14.230;2023-03-02T09:49:53;12.68;;;5.13;;
71867;SDS011;59738;48.324;14.230;2023-03-02T09:52:26;12.77;;;6.53;;
71867;SDS011;59738;48.324;14.230;2023-03-02T09:54:58;14.40;;;5.80;;
71867;SDS011;59738;48.324;14.230;2023-03-02T09:57:28;12.23;;;5.18;;
71867;SDS011;59738;48.324;14.230;2023-03-02T09:59:58;9.60;;;5.40;;
71867;SDS011;59738;48.324;14.230;2023-03-02T10:02:41;6.32;;;4.35;;
71867;SDS011;59738;48.324;14.230;2023-03-02T10:05:14;10.32;;;6.03;;
71867;SDS011;59738;48.324;14.230;2023-03-02T10:07:43;9.80;;;5.03;;
71867;SDS011;59738;48.324;14.230;2023-03-02T10:10:18;11.02;;;5.40;;
71867;SDS011;59738;48.324;14.230;2023-03-02T10:12:53;10.98;;;5.43;;
71867;SDS011;59738;48.324;14.230;2023-03-02T10:15:28;8.50;;;4.28;;
71867;SDS011;59738;48.324;14.230;2023-03-02T10:18:03;6.80;;;4.50;;
71867;SDS011;59738;48.324;14.230;2023-03-02T10:20:38;6.33;;;4.03;;
71867;SDS011;59738;48.324;14.230;2023-03-02T10:23:14;19.67;;;5.55;;
71867;SDS011;59738;48.324;14.230;2023-03-02T10:25:56;14.52;;;4.50;;
71867;SDS011;59738;48.324;14.230;2023-03-02T10:28:27;11.85;;;5.18;;
71867;SDS011;59738;48.324;14.230;2023-03-02T10:30:59;9.52;;;4.75;;
71867;SDS011;59738;48.324;14.230;2023-03-02T10:33:33;9.03;;;4.53;;
71867;SDS011;59738;48.324;14.230;2023-03-02T10:36:03;10.43;;;4.22;;
71867;SDS011;59738;48.324;14.230;2023-03-02T10:38:33;13.13;;;5.90;;
71867;SDS011;59738;48.324;14.230;2023-03-02T10:41:03;8.85;;;4.15;;
71867;SDS011;59738;48.324;14.230;2023-03-02T10:43:33;11.02;;;5.10;;
71867;SDS011;59738;48.324;14.230;2023-03-02T10:46:03;13.87;;;4.27;;
71867;SDS011;59738;48.324;14.230;2023-03-02T10:48:33;7.90;;;3.88;;
71867;SDS011;59738;48.324;14.230;2023-03-02T10:51:19;7.47;;;3.30;;
71867;SDS011;59738;48.324;14.230;2023-03-02T10:53:48;5.82;;;3.75;;
71867;SDS011;59738;48.324;14.230;2023-03-02T10:56:17;13.05;;;4.55;;
71867;SDS011;59738;48.324;14.230;2023-03-02T10:58:46;7.20;;;4.10;;
71867;SDS011;59738;48.324;14.230;2023-03-02T11:01:15;9.38;;;4.43;;
71867;SDS011;59738;48.324;14.230;2023-03-02T11:03:54;10.48;;;3.83;;
71867;SDS011;59738;48.324;14.230;2023-03-02T11:06:22;7.95;;;4.07;;
71867;SDS011;59738;48.324;14.230;2023-03-02T11:08:58;9.25;;;3.60;;
71867;SDS011;59738;48.324;14.230;2023-03-02T11:11:27;8.00;;;3.77;;
71867;SDS011;59738;48.324;14.230;2023-03-02T11:13:55;13.23;;;3.78;;
71867;SDS011;59738;48.324;14.230;2023-03-02T11:16:33;5.57;;;3.65;;
71867;SDS011;59738;48.324;14.230;2023-03-02T11:19:03;7.18;;;3.20;;
71867;SDS011;59738;48.324;14.230;2023-03-02T11:21:36;6.18;;;3.05;;
71867;SDS011;59738;48.324;14.230;2023-03-02T11:24:07;9.63;;;3.73;;
71867;SDS011;59738;48.324;14.230;2023-03-02T11:26:38;8.32;;;2.75;;
71867;SDS011;59738;48.324;14.230;2023-03-02T11:29:12;7.53;;;4.00;;
71867;SDS011;59738;48.324;14.230;2023-03-02T11:31:44;6.50;;;3.53;;
71867;SDS011;59738;48.324;14.230;2023-03-02T11:34:26;8.52;;;3.35;;
71867;SDS011;59738;48.324;14.230;2023-03-02T11:36:57;9.33;;;3.83;;
71867;SDS011;59738;48.324;14.230;2023-03-02T11:39:31;6.38;;;3.13;;
71867;SDS011;59738;48.324;14.230;2023-03-02T11:42:03;10.20;;;3.88;;
71867;SDS011;59738;48.324;14.230;2023-03-02T11:44:30;8.75;;;4.10;;
71867;SDS011;59738;48.324;14.230;2023-03-02T11:46:58;7.65;;;3.42;;
71867;SDS011;59738;48.324;14.230;2023-03-02T11:49:33;8.27;;;3.60;;
71867;SDS011;59738;48.324;14.230;2023-03-02T11:52:03;9.48;;;3.70;;
71867;SDS011;59738;48.324;14.230;2023-03-02T11:54:33;8.13;;;3.10;;
71867;SDS011;59738;48.324;14.230;2023-03-02T11:57:04;10.30;;;3.47;;
71867;SDS011;59738;48.324;14.230;2023-03-02T11:59:31;5.80;;;3.67;;
71867;SDS011;59738;48.324;14.230;2023-03-02T12:02:00;5.37;;;2.90;;
71867;SDS011;59738;48.324;14.230;2023-03-02T12:04:29;5.40;;;2.80;;
71867;SDS011;59738;48.324;14.230;2023-03-02T12:07:00;5.18;;;2.80;;
71867;SDS011;59738;48.324;14.230;2023-03-02T12:09:33;10.85;;;4.00;;
71867;SDS011;59738;48.324;14.230;2023-03-02T12:12:15;4.90;;;2.95;;
71867;SDS011;59738;48.324;14.230;2023-03-02T12:14:52;7.53;;;3.27;;
71867;SDS011;59738;48.324;14.230;2023-03-02T12:17:21;5.32;;;3.22;;
71867;SDS011;59738;48.324;14.230;2023-03-02T12:20:08;4.57;;;2.75;;
71867;SDS011;59738;48.324;14.230;2023-03-02T12:22:48;5.22;;;3.15;;
71867;SDS011;59738;48.324;14.230;2023-03-02T12:25:27;6.63;;;3.20;;
71867;SDS011;59738;48.324;14.230;2023-03-02T12:28:03;8.23;;;3.20;;
71867;SDS011;59738;48.324;14.230;2023-03-02T12:30:31;5.88;;;3.25;;
71867;SDS011;59738;48.324;14.230;2023-03-02T12:33:00;8.15;;;3.40;;
71867;SDS011;59738;48.324;14.230;2023-03-02T12:35:31;10.85;;;3.78;;
71867;SDS011;59738;48.324;14.230;2023-03-02T12:38:00;4.57;;;3.20;;
71867;SDS011;59738;48.324;14.230;2023-03-02T12:40:31;8.57;;;3.20;;
71867;SDS011;59738;48.324;14.230;2023-03-02T12:43:23;11.77;;;3.40;;
71867;SDS011;59738;48.324;14.230;2023-03-02T12:46:00;8.43;;;4.10;;
71867;SDS011;59738;48.324;14.230;2023-03-02T12:48:37;5.50;;;3.38;;
71867;SDS011;59738;48.324;14.230;2023-03-02T12:51:13;5.05;;;2.95;;
71867;SDS011;59738;48.324;14.230;2023-03-02T12:53:43;5.90;;;3.43;;
71867;SDS011;59738;48.324;14.230;2023-03-02T12:56:20;7.28;;;3.35;;
71867;SDS011;59738;48.324;14.230;2023-03-02T12:58:48;3.22;;;2.92;;
71867;SDS011;59738;48.324;14.230;2023-03-02T13:01:19;9.40;;;3.95;;
71867;SDS011;59738;48.324;14.230;2023-03-02T13:03:47;10.55;;;3.13;;
71867;SDS011;59738;48.324;14.230;2023-03-02T13:06:16;15.80;;;3.77;;
71867;SDS011;59738;48.324;14.230;2023-03-02T13:08:45;6.22;;;2.80;;
71867;SDS011;59738;48.324;14.230;2023-03-02T13:11:18;8.30;;;3.00;;
71867;SDS011;59738;48.324;14.230;2023-03-02T13:13:47;7.43;;;3.53;;
71867;SDS011;59738;48.324;14.230;2023-03-02T13:16:19;9.10;;;3.05;;
71867;SDS011;59738;48.324;14.230;2023-03-02T13:18:48;7.70;;;3.50;;
71867;SDS011;59738;48.324;14.230;2023-03-02T13:21:20;7.00;;;3.50;;
71867;SDS011;59738;48.324;14.230;2023-03-02T13:23:49;6.93;;;3.25;;
71867;SDS011;59738;48.324;14.230;2023-03-02T13:26:23;6.57;;;3.42;;
71867;SDS011;59738;48.324;14.230;2023-03-02T13:29:02;7.38;;;3.05;;
71867;SDS011;59738;48.324;14.230;2023-03-02T13:31:31;5.93;;;3.50;;
71867;SDS011;59738;48.324;14.230;2023-03-02T13:33:59;5.00;;;2.90;;
71867;SDS011;59738;48.324;14.230;2023-03-02T13:36:32;5.13;;;2.80;;
71867;SDS011;59738;48.324;14.230;2023-03-02T13:39:02;7.75;;;3.20;;
71867;SDS011;59738;48.324;14.230;2023-03-02T13:41:32;6.43;;;3.05;;
71867;SDS011;59738;48.324;14.230;2023-03-02T13:44:10;4.43;;;2.20;;
71867;SDS011;59738;48.324;14.230;2023-03-02T13:46:45;7.40;;;3.53;;
71867;SDS011;59738;48.324;14.230;2023-03-02T13:49:13;6.60;;;3.33;;
71867;SDS011;59738;48.324;14.230;2023-03-02T13:51:57;5.38;;;2.85;;
71867;SDS011;59738;48.324;14.230;2023-03-02T13:54:28;9.00;;;3.47;;
71867;SDS011;59738;48.324;14.230;2023-03-02T13:56:57;7.87;;;3.40;;
71867;SDS011;59738;48.324;14.230;2023-03-02T13:59:25;12.48;;;2.90;;
71867;SDS011;59738;48.324;14.230;2023-03-02T14:01:53;5.35;;;3.22;;
71867;SDS011;59738;48.324;14.230;2023-03-02T14:04:21;6.07;;;3.00;;
71867;SDS011;59738;48.324;14.230;2023-03-02T14:06:49;9.32;;;3.53;;
71867;SDS011;59738;48.324;14.230;2023-03-02T14:09:18;4.43;;;2.70;;
71867;SDS011;59738;48.324;14.230;2023-03-02T14:11:47;5.25;;;3.03;;
71867;SDS011;59738;48.324;14.230;2023-03-02T14:14:16;5.68;;;2.90;;
71867;SDS011;59738;48.324;14.230;2023-03-02T14:16:45;5.75;;;3.65;;
71867;SDS011;59738;48.324;14.230;2023-03-02T14:19:13;6.50;;;3.05;;
71867;SDS011;59738;48.324;14.230;2023-03-02T14:21:43;8.50;;;4.37;;
71867;SDS011;59738;48.324;14.230;2023-03-02T14:24:11;5.15;;;3.47;;
71867;SDS011;59738;48.324;14.230;2023-03-02T14:26:40;6.22;;;3.50;;
71867;SDS011;59738;48.324;14.230;2023-03-02T14:29:13;8.60;;;3.70;;
71867;SDS011;59738;48.324;14.230;2023-03-02T14:31:46;12.95;;;4.30;;
71867;SDS011;59738;48.324;14.230;2023-03-02T14:34:14;12.60;;;4.10;;
71867;SDS011;59738;48.324;14.230;2023-03-02T14:36:43;5.55;;;2.70;;
71867;SDS011;59738;48.324;14.230;2023-03-02T14:39:17;6.13;;;2.75;;
71867;SDS011;59738;48.324;14.230;2023-03-02T14:41:47;5.65;;;3.22;;
71867;SDS011;59738;48.324;14.230;2023-03-02T14:44:15;6.63;;;3.15;;
71867;SDS011;59738;48.324;14.230;2023-03-02T14:46:42;10.73;;;4.07;;
71867;SDS011;59738;48.324;14.230;2023-03-02T14:49:10;10.02;;;4.55;;